createdAt,value
2019-05-05T00:00:06.342Z,95790.00
2019-05-05T00:05:26.885Z,95798.00
2019-05-05T00:10:39.051Z,95799.00
2019-05-05T00:16:01.115Z,95804.00
2019-05-05T00:21:05.991Z,95785.00
2019-05-05T00:26:08.352Z,95790.00
2019-05-05T00:31:12.259Z,95776.00
2019-05-05T00:36:14.726Z,95789.00
2019-05-05T00:41:17.497Z,95797.00
2019-05-05T00:46:35.248Z,95794.00
2019-05-05T00:51:38.827Z,95794.00
2019-05-05T00:56:41.248Z,95804.00
2019-05-05T01:02:09.263Z,95824.00
2019-05-05T01:07:14.207Z,95835.00
2019-05-05T01:12:17.399Z,95833.00
2019-05-05T01:17:19.952Z,95834.00
2019-05-05T01:22:25.025Z,95847.00
2019-05-05T01:27:27.748Z,95857.00
2019-05-05T01:32:35.312Z,95859.00
2019-05-05T01:37:44.855Z,95867.00
2019-05-05T01:42:47.757Z,95877.00
2019-05-05T01:47:50.156Z,95876.00
2019-05-05T01:52:52.616Z,95869.00
2019-05-05T01:57:55.616Z,95871.00
2019-05-05T02:03:00.158Z,95883.00
2019-05-05T02:08:04.697Z,95884.00
2019-05-05T02:13:07.521Z,95881.00
2019-05-05T02:18:09.979Z,95887.00
2019-05-05T02:23:15.139Z,95885.00
2019-05-05T02:28:18.340Z,95882.00
2019-05-05T02:33:21.220Z,95885.00
2019-05-05T02:38:26.162Z,95883.00
2019-05-05T02:43:30.084Z,95892.00
2019-05-05T02:48:35.442Z,95885.00
2019-05-05T02:53:59.780Z,95883.00
2019-05-05T02:59:06.428Z,95881.00
2019-05-05T03:04:09.055Z,95876.00
2019-05-05T03:09:13.998Z,95858.00
2019-05-05T03:14:18.666Z,95886.00
2019-05-05T03:19:23.689Z,95868.00
2019-05-05T03:24:27.419Z,95873.00
2019-05-05T03:29:30.135Z,95876.00
2019-05-05T03:34:41.789Z,95886.00
2019-05-05T03:39:50.306Z,95881.00
2019-05-05T03:44:55.370Z,95887.00
2019-05-05T03:49:57.979Z,95895.00
2019-05-05T03:55:00.651Z,95906.00
2019-05-05T04:00:05.815Z,95911.00
2019-05-05T04:05:16.935Z,95921.00
2019-05-05T04:10:19.675Z,95939.00
2019-05-05T04:15:25.220Z,95944.00
2019-05-05T04:20:39.075Z,95955.00
2019-05-05T04:25:44.593Z,95956.00
2019-05-05T04:31:04.605Z,95954.00
2019-05-05T04:36:07.101Z,95972.00
2019-05-05T04:41:09.588Z,95978.00
2019-05-05T04:51:58.087Z,95980.00
2019-05-05T04:57:00.604Z,95986.00
2019-05-05T05:07:41.460Z,95997.00
2019-05-05T05:12:43.988Z,96005.00
2019-05-05T05:29:23.821Z,96023.00
2019-05-05T05:34:26.496Z,96035.00
2019-05-05T05:39:48.468Z,96034.00
2019-05-05T05:50:54.159Z,96043.00
2019-05-05T05:55:57.111Z,96051.00
2019-05-05T06:01:15.719Z,96065.00
2019-05-05T06:06:34.679Z,96069.00
2019-05-05T06:11:37.295Z,96076.00
2019-05-05T06:16:39.736Z,96077.00
2019-05-05T06:21:44.012Z,96090.00
2019-05-05T06:26:46.612Z,96074.00
2019-05-05T06:31:50.441Z,96081.00
2019-05-05T06:36:53.709Z,96098.00
2019-05-05T06:42:15.835Z,96108.00
2019-05-05T06:47:23.833Z,96118.00
2019-05-05T06:52:26.799Z,96110.00
2019-05-05T06:57:29.195Z,96111.00
2019-05-05T07:02:34.259Z,96119.00
2019-05-05T07:07:37.422Z,96132.00
2019-05-05T07:12:40.384Z,96130.00
2019-05-05T07:17:49.442Z,96135.00
2019-05-05T07:23:01.364Z,96147.00
2019-05-05T07:27:57.362Z,96146.00
2019-05-05T07:32:59.924Z,96147.00
2019-05-05T07:38:04.369Z,96150.00
2019-05-05T07:43:15.785Z,96151.00
2019-05-05T07:48:18.423Z,96178.00
2019-05-05T07:53:21.284Z,96174.00
2019-05-05T07:58:24.294Z,96188.00
2019-05-05T08:03:27.133Z,96188.00
2019-05-05T08:08:30.785Z,96190.00
2019-05-05T08:13:34.383Z,96189.00
2019-05-05T08:18:55.849Z,96201.00
2019-05-05T08:24:10.136Z,96199.00
2019-05-05T08:29:38.135Z,96207.00
2019-05-05T08:34:53.874Z,96216.00
2019-05-05T08:39:45.994Z,96190.00
2019-05-05T08:44:48.575Z,96215.00
2019-05-05T08:49:53.762Z,96232.00
2019-05-05T08:54:56.783Z,96217.00
2019-05-05T09:00:04.726Z,96208.00
2019-05-05T09:05:07.199Z,96215.00
2019-05-05T09:10:09.699Z,96210.00
2019-05-05T09:15:13.638Z,96206.00
2019-05-05T09:20:16.443Z,96203.00
2019-05-05T09:25:37.507Z,96207.00
2019-05-05T09:30:44.399Z,96197.00
2019-05-05T09:35:48.011Z,96188.00
2019-05-05T09:40:50.412Z,96190.00
2019-05-05T09:45:54.558Z,96193.00
2019-05-05T09:50:57.482Z,96192.00
2019-05-05T09:55:59.871Z,96189.00
2019-05-05T10:01:04.008Z,96203.00
2019-05-05T10:06:06.622Z,96197.00
2019-05-05T10:11:09.032Z,96196.00
2019-05-05T10:16:11.376Z,96207.00
2019-05-05T10:21:17.620Z,96205.00
2019-05-05T10:26:19.019Z,96216.00
2019-05-05T10:31:24.023Z,96213.00
2019-05-05T10:36:26.731Z,96219.00
2019-05-05T10:41:29.322Z,96207.00
2019-05-05T10:46:33.987Z,96214.00
2019-05-05T10:51:36.393Z,96210.00
2019-05-05T10:56:38.803Z,96198.00
2019-05-05T11:01:41.188Z,96203.00
2019-05-05T11:06:44.668Z,96196.00
2019-05-05T11:11:47.067Z,96201.00
2019-05-05T11:16:50.022Z,96201.00
2019-05-05T11:21:53.998Z,96206.00
2019-05-05T11:26:56.544Z,96213.00
2019-05-05T11:32:15.665Z,96211.00
2019-05-05T11:37:20.931Z,96203.00
2019-05-05T11:48:54.491Z,96205.00
2019-05-05T11:54:07.274Z,96214.00
2019-05-05T12:05:04.596Z,96216.00
2019-05-05T12:21:35.692Z,96213.00
2019-05-05T12:27:11.451Z,96214.00
2019-05-05T12:33:10.251Z,96212.00
2019-05-05T13:07:24.750Z,96209.00
2019-05-05T13:12:56.420Z,96213.00
2019-05-05T13:18:04.397Z,96233.00
2019-05-05T13:23:59.003Z,96216.00
2019-05-05T13:29:01.827Z,96218.00
2019-05-05T13:34:04.691Z,96219.00
2019-05-05T13:39:09.351Z,96221.00
2019-05-05T13:44:19.283Z,96222.00
2019-05-05T13:49:27.011Z,96217.00
2019-05-05T13:54:29.699Z,96236.00
2019-05-05T13:59:33.993Z,96219.00
2019-05-05T14:04:36.340Z,96222.00
2019-05-05T14:09:38.892Z,96212.00
2019-05-05T14:14:44.021Z,96238.00
2019-05-05T14:20:00.404Z,96249.00
2019-05-05T14:30:50.770Z,96223.00
2019-05-05T14:36:13.973Z,96229.00
2019-05-05T14:41:16.967Z,96236.00
2019-05-05T14:46:23.378Z,96238.00
2019-05-05T14:51:25.651Z,96246.00
2019-05-05T14:56:36.216Z,96244.00
2019-05-05T15:01:34.226Z,96242.00
2019-05-05T15:06:44.663Z,96245.00
2019-05-05T15:12:05.678Z,96247.00
2019-05-05T15:17:08.213Z,96243.00
2019-05-05T15:22:10.736Z,96255.00
2019-05-05T15:27:13.567Z,96242.00
2019-05-05T15:32:16.116Z,96241.00
2019-05-05T15:37:19.064Z,96253.00
2019-05-05T15:42:21.583Z,96238.00
2019-05-05T15:47:26.040Z,96252.00
2019-05-05T15:52:35.607Z,96248.00
2019-05-05T15:57:38.037Z,96259.00
2019-05-05T16:02:40.545Z,96264.00
2019-05-05T16:07:44.014Z,96261.00
2019-05-05T16:12:46.980Z,96266.00
2019-05-05T16:18:16.926Z,96259.00
2019-05-05T16:23:23.289Z,96268.00
2019-05-05T16:28:25.723Z,96260.00
2019-05-05T16:33:28.023Z,96257.00
2019-05-05T16:38:30.424Z,96272.00
2019-05-05T16:43:33.751Z,96274.00
2019-05-05T16:48:37.258Z,96271.00
2019-05-05T16:53:39.673Z,96282.00
2019-05-05T16:58:42.112Z,96282.00
2019-05-05T17:03:45.945Z,96277.00
2019-05-05T17:08:49.614Z,96282.00
2019-05-05T17:14:18.371Z,96278.00
2019-05-05T17:19:25.799Z,96290.00
2019-05-05T17:24:29.239Z,96282.00
2019-05-05T17:29:31.822Z,96298.00
2019-05-05T17:34:35.469Z,96288.00
2019-05-05T17:39:45.537Z,96280.00
2019-05-05T17:45:11.606Z,96295.00
2019-05-05T17:50:46.456Z,96290.00
2019-05-05T17:55:50.515Z,96302.00
2019-05-05T18:00:57.667Z,96303.00
2019-05-05T18:06:26.898Z,96303.00
2019-05-05T18:11:58.535Z,96304.00
2019-05-05T18:17:01.710Z,96310.00
2019-05-05T18:22:04.538Z,96304.00
2019-05-05T18:33:06.598Z,96322.00
2019-05-05T18:38:09.936Z,96332.00
2019-05-05T18:49:33.701Z,96344.00
2019-05-05T18:54:37.936Z,96338.00
2019-05-05T18:59:41.255Z,96343.00
2019-05-05T19:05:12.636Z,96347.00
2019-05-05T19:10:16.427Z,96353.00
2019-05-05T19:15:20.240Z,96359.00
2019-05-05T19:20:46.193Z,96365.00
2019-05-05T19:25:49.065Z,96210.00
2019-05-05T19:30:59.657Z,96382.00
2019-05-05T19:36:04.774Z,96367.00
2019-05-05T19:41:06.651Z,96376.00
2019-05-05T19:46:10.890Z,96373.00
2019-05-05T19:57:03.888Z,96367.00
2019-05-05T20:02:07.585Z,96379.00
2019-05-05T20:07:10.135Z,96376.00
2019-05-05T20:12:16.142Z,96374.00
2019-05-05T20:17:24.503Z,96368.00
2019-05-05T20:22:27.063Z,96368.00
2019-05-05T20:27:29.943Z,96367.00
2019-05-05T20:32:51.419Z,96361.00
2019-05-05T20:38:04.762Z,96364.00
2019-05-05T20:43:07.334Z,96365.00
2019-05-05T20:48:09.779Z,96360.00
2019-05-05T20:53:13.626Z,96362.00
2019-05-05T20:58:16.697Z,96354.00
2019-05-05T21:03:19.160Z,96351.00
2019-05-05T21:08:23.529Z,96347.00
2019-05-05T21:13:25.831Z,96354.00
2019-05-05T21:18:28.566Z,96351.00
2019-05-05T21:23:54.588Z,96352.00
2019-05-05T21:28:57.240Z,96344.00
2019-05-05T21:33:59.771Z,96340.00
2019-05-05T21:39:04.034Z,96340.00
2019-05-05T21:44:07.636Z,96342.00
2019-05-05T21:49:10.147Z,96341.00
2019-05-05T21:54:30.764Z,96348.00
2019-05-05T21:59:33.736Z,96345.00
2019-05-05T22:04:36.880Z,96351.00
2019-05-05T22:09:39.395Z,96346.00
2019-05-05T22:14:43.511Z,96340.00
2019-05-05T22:19:55.879Z,96338.00
2019-05-05T22:24:58.319Z,96333.00
2019-05-05T22:30:09.718Z,96331.00
2019-05-05T22:35:05.892Z,96341.00
2019-05-05T22:40:10.219Z,96336.00
2019-05-05T22:45:14.207Z,96332.00
2019-05-05T22:50:17.059Z,96338.00
2019-05-05T22:55:20.452Z,96335.00
2019-05-05T23:00:29.052Z,96328.00
2019-05-05T23:05:36.196Z,96337.00
2019-05-05T23:10:38.615Z,96329.00
2019-05-05T23:15:47.595Z,96339.00
2019-05-05T23:21:10.286Z,96330.00
2019-05-05T23:26:15.835Z,96338.00
2019-05-05T23:31:18.259Z,96334.00
2019-05-05T23:36:20.594Z,96334.00
2019-05-05T23:41:23.901Z,96326.00
2019-05-05T23:46:27.815Z,96325.00
2019-05-05T23:51:30.275Z,96322.00
2019-05-05T23:56:34.747Z,96325.00
